Time;durP1;ratioP1;P1;durP2;ratioP2;P2;SDS_P1;SDS_P2;PMS_P1;PMS_P2;Temp;Humidity;BMP_temperature;BMP_pressure;BME280_temperature;BME280_humidity;BME280_pressure;Samples;Min_cycle;Max_cycle;Signal;HPM_P1;HPM_P2
2022/03/28 00:07:38;;;;;;;19.77;9.55;;;3.00;71.00;;;;;;20650445;28;20034;-45
2022/03/28 00:17:41;;;;;;;18.55;10.00;;;3.00;71.30;;;;;;20646116;28;20089;-44
2022/03/28 00:27:43;;;;;;;19.60;9.55;;;2.80;71.60;;;;;;20677822;28;20042;-45
2022/03/28 00:37:46;;;;;;;20.15;10.43;;;3.00;71.70;;;;;;20644923;28;20100;-47
2022/03/28 00:47:49;;;;;;;21.05;10.23;;;2.90;71.80;;;;;;20676581;28;20493;-49
2022/03/28 00:57:51;;;;;;;17.85;9.55;;;3.00;71.50;;;;;;20675876;28;20038;-45
2022/03/28 01:07:55;;;;;;;17.02;8.60;;;2.90;71.20;;;;;;20677700;28;20112;-45
2022/03/28 01:18:06;;;;;;;17.30;8.75;;;3.10;66.90;;;;;;20674148;28;20038;-44
2022/03/28 01:28:09;;;;;;;;;;;3.60;63.80;;;;;;20657100;28;20042;-47
2022/03/28 01:38:14;;;;;;;14.88;5.90;;;3.90;61.10;;;;;;20640562;28;19941;-44
2022/03/28 01:48:18;;;;;;;11.15;5.70;;;4.00;59.50;;;;;;20671792;28;20816;-44
2022/03/28 01:58:21;;;;;;;10.77;5.82;;;4.00;60.50;;;;;;20671469;28;20038;-46
2022/03/28 02:08:23;;;;;;;13.15;6.47;;;4.00;60.70;;;;;;20670769;28;20097;-44
2022/03/28 02:18:25;;;;;;;13.23;6.13;;;3.90;61.60;;;;;;20670476;28;20057;-46
2022/03/28 02:28:28;;;;;;;10.40;6.00;;;3.80;63.30;;;;;;20667259;28;20038;-46
2022/03/28 02:38:31;;;;;;;13.00;6.38;;;3.40;64.80;;;;;;20675757;28;20109;-46
2022/03/28 02:48:34;;;;;;;13.02;6.60;;;3.10;65.80;;;;;;20685488;28;20042;-46
2022/03/28 02:58:36;;;;;;;15.35;6.80;;;3.00;66.90;;;;;;20684779;28;20109;-50
2022/03/28 03:08:39;;;;;;;13.88;7.45;;;3.20;66.80;;;;;;20669921;28;20105;-47
2022/03/28 03:18:41;;;;;;;17.95;7.72;;;3.20;68.00;;;;;;20683208;28;20480;-45
2022/03/28 03:28:44;;;;;;;12.90;7.15;;;3.10;69.40;;;;;;20682572;28;20096;-44
2022/03/28 03:38:48;;;;;;;13.43;6.97;;;3.00;69.70;;;;;;20649025;28;20073;-45
2022/03/28 03:48:51;;;;;;;13.23;6.88;;;3.00;70.50;;;;;;20680859;28;20457;-47
2022/03/28 03:58:55;;;;;;;14.13;6.90;;;2.70;71.00;;;;;;20680724;28;20092;-45
2022/03/28 04:08:57;;;;;;;13.40;6.82;;;2.70;70.50;;;;;;20681756;28;20038;-46
2022/03/28 04:19:00;;;;;;;15.23;6.20;;;2.70;69.90;;;;;;20678822;28;20457;-52
2022/03/28 04:29:03;;;;;;;19.33;7.28;;;2.80;69.90;;;;;;20677989;28;20088;-44
2022/03/28 04:39:06;;;;;;;12.90;7.22;;;2.80;70.30;;;;;;20676990;28;20124;-44
2022/03/28 04:49:13;;;;;;;16.05;7.38;;;2.80;71.40;;;;;;20676402;28;20100;-45
2022/03/28 04:59:15;;;;;;;15.88;7.45;;;2.70;71.30;;;;;;20674950;28;20038;-46
2022/03/28 05:09:18;;;;;;;13.02;6.65;;;2.70;70.80;;;;;;20675959;28;20042;-44
2022/03/28 05:19:20;;;;;;;14.20;6.88;;;2.60;70.60;;;;;;20674049;28;20042;-45
2022/03/28 05:29:24;;;;;;;12.95;6.35;;;2.70;70.10;;;;;;20673323;28;20073;-45
2022/03/28 05:39:28;;;;;;;14.77;7.15;;;2.70;69.40;;;;;;20672866;28;20513;-44
2022/03/28 05:49:31;;;;;;;14.80;6.88;;;2.70;69.70;;;;;;20672004;28;20494;-48
2022/03/28 05:59:34;;;;;;;14.57;7.30;;;2.80;69.40;;;;;;20671366;28;20482;-48
2022/03/28 06:09:37;;;;;;;13.60;7.22;;;2.90;68.40;;;;;;20670536;28;20112;-45
2022/03/28 06:19:39;;;;;;;17.50;8.20;;;3.00;67.90;;;;;;20670412;28;20034;-46
2022/03/28 06:29:42;;;;;;;15.02;7.82;;;3.20;67.20;;;;;;20653361;28;20034;-48
2022/03/28 06:39:44;;;;;;;16.05;7.53;;;3.70;66.30;;;;;;20669265;28;20057;-45
2022/03/28 06:49:47;;;;;;;16.60;8.60;;;4.10;65.20;;;;;;20669049;28;20034;-46
2022/03/28 06:59:50;;;;;;;16.48;8.43;;;4.60;64.40;;;;;;20669084;28;20035;-48
2022/03/28 07:09:53;;;;;;;19.63;9.13;;;5.50;63.50;;;;;;20653767;28;20077;-47
2022/03/28 07:19:55;;;;;;;18.23;10.82;;;6.80;62.70;;;;;;20635804;28;20034;-46
2022/03/28 07:29:57;;;;;;;14.88;8.52;;;8.20;58.70;;;;;;20681665;28;20101;-47
2022/03/28 07:40:00;;;;;;;16.98;10.18;;;9.40;58.30;;;;;;20681715;28;20493;-51
2022/03/28 07:50:05;;;;;;;19.70;9.68;;;10.90;55.90;;;;;;20681284;28;20370;-48
2022/03/28 08:00:11;;;;;;;20.50;11.15;;;12.30;54.10;;;;;;20680293;28;20043;-48
2022/03/28 08:10:16;;;;;;;16.60;9.80;;;13.10;53.00;;;;;;20667008;28;20552;-47
2022/03/28 08:20:19;;;;;;;17.58;10.35;;;13.60;50.90;;;;;;20679679;28;20089;-51
2022/03/28 08:30:22;;;;;;;17.15;9.85;;;14.10;51.90;;;;;;20677734;28;20038;-54
2022/03/28 08:40:26;;;;;;;18.65;10.60;;;14.40;49.10;;;;;;20677621;28;20413;-53
2022/03/28 08:50:30;;;;;;;16.95;10.70;;;14.70;50.40;;;;;;20571717;28;20620;-53
2022/03/28 09:00:32;;;;;;;16.88;10.85;;;14.90;52.60;;;;;;20554486;28;20075;-53
2022/03/28 09:10:37;;;;;;;19.95;12.35;;;15.40;48.80;;;;;;20557261;28;20560;-50
2022/03/28 09:20:47;;;;;;;18.05;11.10;;;15.50;51.30;;;;;;20566735;28;20398;-50
2022/03/28 09:30:49;;;;;;;18.03;11.20;;;15.80;50.90;;;;;;20673128;28;20034;-48
2022/03/28 09:40:52;;;;;;;16.67;9.93;;;16.30;48.50;;;;;;20672736;28;20090;-49
2022/03/28 09:51:00;;;;;;;16.77;10.40;;;16.30;48.40;;;;;;20671311;28;20118;-51
2022/03/28 10:01:08;;;;;;;16.70;10.40;;;16.70;49.30;;;;;;20640315;28;20076;-48
2022/03/28 10:11:16;;;;;;;20.48;10.60;;;16.80;48.20;;;;;;20641815;28;20034;-54
2022/03/28 10:21:36;;;;;;;15.90;9.32;;;16.80;49.40;;;;;;20670417;28;20093;-48
2022/03/28 10:31:57;;;;;;;16.48;9.23;;;17.10;48.30;;;;;;20670124;28;20486;-49
2022/03/28 10:42:13;;;;;;;15.88;9.18;;;16.90;47.30;;;;;;20652745;28;20125;-51
2022/03/28 10:52:17;;;;;;;13.57;8.65;;;17.40;46.70;;;;;;20652889;28;20043;-54
2022/03/28 11:02:30;;;;;;;14.18;8.57;;;17.60;46.10;;;;;;20679493;28;20410;-54
2022/03/28 11:12:37;;;;;;;15.13;8.82;;;17.60;47.10;;;;;;20683856;28;20096;-54
2022/03/28 11:22:49;;;;;;;14.43;8.70;;;17.50;46.90;;;;;;20683405;28;20100;-54
2022/03/28 11:32:54;;;;;;;14.45;9.63;;;17.10;47.80;;;;;;20682571;28;20114;-55
2022/03/28 11:42:59;;;;;;;13.25;8.82;;;17.30;47.80;;;;;;20681461;28;20050;-53
2022/03/28 11:53:03;;;;;;;14.55;9.30;;;17.70;45.20;;;;;;20681140;28;20046;-54
2022/03/28 12:03:08;;;;;;;15.38;8.75;;;17.70;48.00;;;;;;20680614;28;20038;-54
2022/03/28 12:13:11;;;;;;;15.63;9.63;;;17.60;44.70;;;;;;20681571;28;20038;-49
2022/03/28 12:23:16;;;;;;;16.50;9.98;;;17.50;46.40;;;;;;20678810;28;20085;-54
2022/03/28 12:33:26;;;;;;;15.00;9.15;;;17.40;45.10;;;;;;20678237;28;20034;-50
2022/03/28 12:43:30;;;;;;;16.40;8.93;;;17.50;46.90;;;;;;20677194;28;20125;-55
2022/03/28 12:53:36;;;;;;;13.60;8.18;;;17.60;45.30;;;;;;20676493;28;20042;-56
2022/03/28 13:03:39;;;;;;;16.95;9.45;;;17.50;46.60;;;;;;20676088;28;20027;-56
2022/03/28 13:13:48;;;;;;;14.95;10.02;;;17.80;44.90;;;;;;20675045;28;20445;-55
2022/03/28 13:24:01;;;;;;;14.60;9.00;;;17.70;43.80;;;;;;20673994;28;20108;-54
2022/03/28 13:34:05;;;;;;;13.50;8.73;;;17.40;45.30;;;;;;20657736;28;20367;-55
2022/03/28 13:44:07;;;;;;;17.25;10.63;;;17.50;45.80;;;;;;20656008;28;20070;-53
2022/03/28 13:54:11;;;;;;;15.65;8.55;;;17.10;45.10;;;;;;20672064;28;20056;-54
2022/03/28 14:04:14;;;;;;;13.77;8.43;;;16.90;43.00;;;;;;20654963;28;20026;-53
2022/03/28 14:14:16;;;;;;;14.32;8.32;;;16.50;43.70;;;;;;20670847;28;20030;-54
2022/03/28 14:24:19;;;;;;;16.63;9.07;;;16.20;43.80;;;;;;20666396;28;20065;-54
2022/03/28 14:34:21;;;;;;;20.27;10.43;;;16.00;45.20;;;;;;20682186;28;20062;-53
2022/03/28 14:44:24;;;;;;;19.58;10.52;;;15.60;45.10;;;;;;20696610;28;20034;-47
2022/03/28 14:54:26;;;;;;;16.42;10.27;;;14.90;45.50;;;;;;20696424;28;20085;-46
2022/03/28 15:04:30;;;;;;;20.25;11.10;;;14.50;46.50;;;;;;20695850;28;20081;-47
2022/03/28 15:14:33;;;;;;;16.20;9.40;;;14.10;48.00;;;;;;20662919;28;20038;-48
2022/03/28 15:24:36;;;;;;;19.00;10.40;;;13.70;48.10;;;;;;20679803;28;20038;-52
2022/03/28 15:34:39;;;;;;;19.77;11.57;;;13.10;47.90;;;;;;20694047;28;20058;-52
2022/03/28 15:44:41;;;;;;;18.58;10.32;;;12.40;49.00;;;;;;20689449;28;20038;-53
2022/03/28 15:54:45;;;;;;;19.10;10.05;;;12.00;49.10;;;;;;20662215;28;20034;-49
2022/03/28 16:04:49;;;;;;;19.98;11.13;;;11.60;48.40;;;;;;20680422;28;20034;-51
2022/03/28 16:14:51;;;;;;;19.42;10.38;;;11.10;50.60;;;;;;20680426;28;20046;-51
2022/03/28 16:24:54;;;;;;;16.55;10.07;;;10.40;50.60;;;;;;20678319;28;20042;-45
2022/03/28 16:34:56;;;;;;;20.35;10.93;;;9.80;52.80;;;;;;20677920;28;20506;-51
2022/03/28 16:44:59;;;;;;;20.83;11.10;;;9.30;55.30;;;;;;20677262;28;20081;-52
2022/03/28 16:55:03;;;;;;;18.65;10.68;;;8.70;56.20;;;;;;20675535;28;20038;-48
2022/03/28 17:05:07;;;;;;;20.13;10.90;;;8.40;56.40;;;;;;20675676;28;20043;-53
2022/03/28 17:15:11;;;;;;;20.23;11.15;;;7.70;58.00;;;;;;20674772;28;20034;-51
2022/03/28 17:25:14;;;;;;;24.50;12.15;;;7.30;59.60;;;;;;20659227;28;20552;-51
2022/03/28 17:35:18;;;;;;;25.05;11.70;;;6.80;60.20;;;;;;20675077;28;20474;-49
2022/03/28 17:45:21;;;;;;;25.65;12.77;;;6.30;60.10;;;;;;20672453;28;20059;-45
2022/03/28 17:55:25;;;;;;;22.95;11.93;;;6.10;60.50;;;;;;20655548;28;20034;-46
2022/03/28 18:05:29;;;;;;;25.70;13.13;;;5.80;60.80;;;;;;20674621;28;20430;-45
2022/03/28 18:15:32;;;;;;;26.00;12.70;;;5.70;60.90;;;;;;20671131;28;20401;-46
2022/03/28 18:25:36;;;;;;;23.95;12.90;;;5.60;62.20;;;;;;20670178;28;20046;-46
2022/03/28 18:35:39;;;;;;;31.05;14.10;;;5.60;63.50;;;;;;20669472;28;20046;-45
2022/03/28 18:45:42;;;;;;;29.05;13.90;;;5.50;63.90;;;;;;20669387;28;20390;-51
2022/03/28 18:55:46;;;;;;;26.67;13.95;;;5.40;64.00;;;;;;20668982;28;20405;-49
2022/03/28 19:05:49;;;;;;;24.38;13.93;;;5.50;65.40;;;;;;20652547;28;20030;-49
2022/03/28 19:15:52;;;;;;;30.42;14.18;;;5.30;66.00;;;;;;20652212;28;20034;-49
2022/03/28 19:25:55;;;;;;;35.25;15.02;;;5.00;66.40;;;;;;20681451;28;20085;-48
2022/03/28 19:35:58;;;;;;;31.38;15.07;;;4.80;66.90;;;;;;20682663;28;20109;-45
2022/03/28 19:46:02;;;;;;;28.73;15.57;;;4.80;67.90;;;;;;20665750;28;20038;-45
2022/03/28 19:56:06;;;;;;;38.92;17.27;;;4.90;69.70;;;;;;20665064;28;20030;-49
2022/03/28 20:06:10;;;;;;;40.03;18.80;;;4.90;73.30;;;;;;20571355;28;20043;-45
2022/03/28 20:16:13;;;;;;;36.50;18.27;;;4.60;75.10;;;;;;20558622;28;20059;-45
2022/03/28 20:26:16;;;;;;;39.88;18.90;;;4.20;77.50;;;;;;20557720;28;20078;-45
2022/03/28 20:36:22;;;;;;;34.95;16.88;;;3.90;79.20;;;;;;20556546;28;20047;-47
2022/03/28 20:46:26;;;;;;;33.63;16.80;;;3.80;79.70;;;;;;20602735;28;20039;-46
2022/03/28 20:56:28;;;;;;;32.75;16.30;;;4.10;77.30;;;;;;20676651;28;20485;-47
2022/03/28 21:06:32;;;;;;;28.30;15.32;;;4.60;75.20;;;;;;20677935;28;20429;-45
2022/03/28 21:16:34;;;;;;;32.53;15.27;;;4.30;74.40;;;;;;20674992;28;20449;-46
2022/03/28 21:26:37;;;;;;;32.45;15.52;;;3.90;75.80;;;;;;20673960;28;20031;-46
2022/03/28 21:36:40;;;;;;;37.47;18.10;;;3.40;79.30;;;;;;20674090;28;20054;-47
2022/03/28 21:46:43;;;;;;;34.00;17.00;;;3.30;82.90;;;;;;20655913;28;20113;-46
2022/03/28 21:56:46;;;;;;;33.92;16.83;;;3.40;84.20;;;;;;20672219;28;20042;-48
2022/03/28 22:06:49;;;;;;;33.75;16.23;;;3.40;85.40;;;;;;20648707;28;20049;-45
2022/03/28 22:16:51;;;;;;;32.33;16.13;;;3.20;85.60;;;;;;20629914;28;20077;-46
2022/03/28 22:26:54;;;;;;;34.55;15.52;;;3.10;84.20;;;;;;20629084;28;20572;-45
2022/03/28 22:36:57;;;;;;;31.42;15.85;;;3.00;83.90;;;;;;20630506;28;20054;-47
2022/03/28 22:46:59;;;;;;;32.28;15.85;;;2.90;84.20;;;;;;20669505;28;20557;-48
2022/03/28 22:57:02;;;;;;;30.83;15.30;;;2.90;85.20;;;;;;20679608;28;20046;-46
2022/03/28 23:07:05;;;;;;;32.30;15.77;;;3.30;83.50;;;;;;20670101;28;20030;-48
2022/03/28 23:17:08;;;;;;;34.45;16.98;;;3.20;83.60;;;;;;20684138;28;20038;-48
2022/03/28 23:27:11;;;;;;;31.75;15.07;;;3.10;82.90;;;;;;20683492;28;20092;-49
2022/03/28 23:37:13;;;;;;;35.58;16.10;;;3.20;82.20;;;;;;20682580;28;20054;-47
2022/03/28 23:47:16;;;;;;;35.15;17.73;;;3.10;82.70;;;;;;20681768;28;20042;-45
2022/03/28 23:57:18;;;;;;;34.15;17.08;;;3.30;84.60;;;;;;20681330;28;20034;-45
